Hasanuddin International Airport
WAAA : now visible

Aeroporto :











RITROVATECI SU...

 
LOGIN :

Iscrizione | Disclaimer

   EN    FR    IT 

 









Sommario :    VFR   VFR Marginale   IFR   IFR Intensivo   IFR Molto Intensivo
Visibilità : 
Base nubi : 
>= 8 km
>= 3000ft
5 / 8 km
1000 / 3000 ft
1500m / 5 km
500 / 1000 ft
800 / 1500m
200 / 500 ft
< 800m
< 200 ft
Simboli :   Temporali  Nebbia  Neve Forte  Precipitazioni Forti  Vento > 20 kt






- Altitudine del aeroporto : 47 ft
- Codice IATA : UPG


WAAA - Hasanuddin International

ULTIMO METAR :
  • 171930Z 07003KT 040V100 7000 -RA FEW017 24/24 Q1011 NOSIG

METARs OBSOLETI :
  • 171830Z 09006KT 8000 -RA SCT017 24/24 Q1011 NOSIG
  • 171800Z 10006KT 8000 -RA SCT017 24/24 Q1012 NOSIG
  • 171730Z 06005KT 7000 -RA SCT017 24/24 Q1012 NOSIG
  • 171700Z 07004KT 040V130 5000 R03/P2000 R21/P2000 -RA SCT017 24/24 Q1013 NOSIG
  • 171630Z 07004KT 040V130 5000 R03/P2000 R21/P2000 -RA SCT017 24/24 Q1013 NOSIG

TAF TAF WAAA
Valido dal 17 a 18 ore il 19 a 00 ore UTC


171700Z 1718/1900 09006KT 6000 -RA SCT018
TEMPO 1719/1722 3000 RA FEW017CB
BECMG 1801/1803 29010KT 9999 NSW



MetMap, La meteo Aeronautica in un colpo d'occhio ! - Copyright ORBIFLY Dicembre 2007 - Disclaimer

ORBIFLY MET'MAP TEAM :

Programmazione e sviluppo : Alexandra Zaïnal
Concezione : Baudouin d'Aumeries
Aiuto per la programmazione : Marc-Olivier Méhu
Supporto tecnico e logistico : Manuel Goepfert
Aiuto per la traduzione : Arnaldo La Scala

Contatto : metmap@orbifly.com




FONTI E CREDITI :

   NOAA       Earth
Advisory